createdAt,value
2019-04-03T00:00:24.188Z,22.27
2019-04-03T00:02:51.475Z,21.03
2019-04-03T00:05:18.825Z,26.23
2019-04-03T00:07:46.286Z,26.00
2019-04-03T00:10:13.686Z,27.43
2019-04-03T00:12:41.284Z,23.90
2019-04-03T00:15:08.903Z,24.23
2019-04-03T00:17:36.268Z,26.03
2019-04-03T00:20:05.281Z,24.70
2019-04-03T00:22:32.672Z,28.07
2019-04-03T00:25:00.045Z,24.07
2019-04-03T00:27:27.335Z,28.03
2019-04-03T00:29:54.688Z,24.53
2019-04-03T00:32:23.368Z,23.67
2019-04-03T00:34:51.800Z,26.57
2019-04-03T00:37:20.048Z,22.57
2019-04-03T00:39:47.476Z,24.43
2019-04-03T00:42:14.756Z,25.77
2019-04-03T00:44:42.135Z,24.67
2019-04-03T00:47:09.501Z,24.50
2019-04-03T00:49:37.104Z,23.20
2019-04-03T00:52:04.990Z,29.57
2019-04-03T00:54:32.355Z,28.90
2019-04-03T00:56:59.648Z,26.20
2019-04-03T00:59:27.064Z,22.67
2019-04-03T01:01:56.060Z,28.17
2019-04-03T01:04:23.428Z,26.23
2019-04-03T01:06:51.278Z,20.87
2019-04-03T01:09:18.645Z,23.93
2019-04-03T01:11:45.928Z,23.47
2019-04-03T01:14:13.639Z,24.90
2019-04-03T01:16:40.941Z,23.30
2019-04-03T01:19:08.440Z,32.57
2019-04-03T01:21:37.276Z,27.33
2019-04-03T01:24:07.654Z,27.30
2019-04-03T01:26:33.993Z,24.80
2019-04-03T01:29:01.292Z,22.90
2019-04-03T01:31:28.581Z,25.20
2019-04-03T01:33:55.863Z,24.77
2019-04-03T01:36:23.229Z,23.30
2019-04-03T01:38:50.509Z,25.10
2019-04-03T01:41:18.869Z,29.50
2019-04-03T01:43:46.831Z,25.57
2019-04-03T01:46:14.269Z,23.57
2019-04-03T01:48:41.602Z,25.00
2019-04-03T01:51:08.929Z,24.57
2019-04-03T01:53:36.280Z,26.10
2019-04-03T01:56:05.092Z,25.13
2019-04-03T01:58:32.588Z,25.53
2019-04-03T02:00:59.984Z,24.50
2019-04-03T02:03:27.304Z,27.00
2019-04-03T02:05:54.753Z,26.03
2019-04-03T02:08:22.087Z,24.73
2019-04-03T02:10:49.645Z,27.37
2019-04-03T02:13:17.022Z,33.00
2019-04-03T02:15:44.485Z,24.97
2019-04-03T02:18:11.918Z,26.40
2019-04-03T02:20:39.456Z,27.80
2019-04-03T02:23:06.734Z,24.60
2019-04-03T02:25:34.016Z,29.93
2019-04-03T02:28:03.256Z,30.90
2019-04-03T02:30:30.381Z,24.87
2019-04-03T02:32:57.889Z,27.23
2019-04-03T02:35:25.485Z,28.03
2019-04-03T02:37:52.756Z,26.97
2019-04-03T02:40:20.055Z,29.13
2019-04-03T02:42:47.534Z,28.90
2019-04-03T02:45:15.395Z,30.50
2019-04-03T02:47:42.813Z,27.30
2019-04-03T02:50:14.007Z,29.33
2019-04-03T02:52:39.395Z,25.27
2019-04-03T02:55:07.605Z,30.70
2019-04-03T02:57:35.599Z,27.73
2019-04-03T03:00:03.007Z,26.07
2019-04-03T03:02:30.281Z,35.83
2019-04-03T03:04:57.899Z,26.40
2019-04-03T03:07:25.622Z,28.60
2019-04-03T03:09:53.236Z,28.30
2019-04-03T03:12:20.721Z,28.47
2019-04-03T03:14:48.210Z,29.43
2019-04-03T03:17:16.801Z,29.47
2019-04-03T03:19:44.106Z,32.77
2019-04-03T03:22:11.521Z,25.80
2019-04-03T03:24:38.930Z,40.07
2019-04-03T03:27:09.461Z,28.80
2019-04-03T03:29:35.564Z,27.80
2019-04-03T03:32:12.688Z,30.63
2019-04-03T03:34:50.678Z,27.37
2019-04-03T03:37:03.319Z,32.27
2019-04-03T03:39:32.142Z,27.40
2019-04-03T03:41:59.820Z,29.13
2019-04-03T03:44:27.403Z,30.57
2019-04-03T03:46:59.349Z,30.40
2019-04-03T03:49:24.809Z,33.33
2019-04-03T03:51:52.673Z,33.07
2019-04-03T03:54:20.507Z,32.87
2019-04-03T03:56:48.096Z,28.80
2019-04-03T03:59:17.997Z,25.97
2019-04-03T04:01:44.912Z,32.10
2019-04-03T04:04:14.278Z,28.00
2019-04-03T04:06:41.692Z,30.77
2019-04-03T04:09:09.330Z,32.47
2019-04-03T04:11:36.669Z,36.40
2019-04-03T04:14:04.310Z,31.30
2019-04-03T04:16:35.922Z,29.63
2019-04-03T04:19:01.015Z,32.27
2019-04-03T04:21:28.420Z,32.07
2019-04-03T04:23:57.239Z,27.87
2019-04-03T04:26:25.006Z,28.03
2019-04-03T04:28:52.311Z,29.37
2019-04-03T04:31:19.726Z,31.73
2019-04-03T04:33:47.992Z,34.03
2019-04-03T04:36:15.750Z,29.87
2019-04-03T04:38:43.027Z,28.73
2019-04-03T04:41:10.356Z,31.20
2019-04-03T04:43:39.398Z,28.40
2019-04-03T04:46:08.933Z,34.50
2019-04-03T04:48:35.744Z,32.23
2019-04-03T04:51:03.029Z,30.50
2019-04-03T04:53:30.772Z,30.03
2019-04-03T04:55:58.198Z,30.97
2019-04-03T04:58:25.545Z,31.03
2019-04-03T05:00:53.456Z,32.13
2019-04-03T05:03:21.838Z,29.33
2019-04-03T05:05:49.810Z,27.87
2019-04-03T05:08:17.090Z,30.07
2019-04-03T05:10:44.403Z,38.57
2019-04-03T05:13:11.753Z,35.40
2019-04-03T05:15:39.528Z,34.10
2019-04-03T05:18:07.029Z,40.17
2019-04-03T05:20:34.368Z,36.80
2019-04-03T05:23:01.726Z,33.63
2019-04-03T05:25:29.847Z,32.20
2019-04-03T05:27:57.669Z,33.43
2019-04-03T05:30:28.551Z,30.33
2019-04-03T05:32:55.920Z,37.27
2019-04-03T05:35:23.389Z,39.57
2019-04-03T05:37:51.495Z,33.70
2019-04-03T05:40:19.046Z,34.10
2019-04-03T05:42:46.432Z,33.00
2019-04-03T05:45:13.773Z,31.50
2019-04-03T05:47:41.349Z,34.73
2019-04-03T05:50:09.012Z,35.23
2019-04-03T05:52:36.288Z,30.97
2019-04-03T05:55:04.336Z,31.80
2019-04-03T05:57:31.635Z,32.77
2019-04-03T06:00:01.859Z,33.87
2019-04-03T06:02:27.978Z,39.07
2019-04-03T06:04:55.352Z,31.80
2019-04-03T06:07:22.705Z,36.90
2019-04-03T06:09:50.098Z,47.83
2019-04-03T06:12:19.149Z,35.37
2019-04-03T06:14:46.578Z,41.53
2019-04-03T06:17:15.557Z,34.00
2019-04-03T06:19:43.088Z,35.37
2019-04-03T06:22:10.801Z,38.93
2019-04-03T06:24:38.204Z,34.27
2019-04-03T06:27:05.503Z,36.83
2019-04-03T06:29:32.846Z,35.43
2019-04-03T06:32:00.260Z,36.57
2019-04-03T06:34:27.608Z,32.60
2019-04-03T06:36:54.913Z,41.60
2019-04-03T06:39:24.041Z,40.80
2019-04-03T06:41:51.409Z,46.67
2019-04-03T06:44:22.051Z,38.70
2019-04-03T06:46:47.814Z,40.33
2019-04-03T06:49:15.081Z,38.30
2019-04-03T06:51:42.387Z,38.23
2019-04-03T06:54:09.998Z,38.10
2019-04-03T06:56:40.013Z,39.70
2019-04-03T06:59:06.461Z,38.70
2019-04-03T07:01:33.938Z,36.30
2019-04-03T07:04:01.458Z,42.47
2019-04-03T07:06:28.930Z,36.50
2019-04-03T07:08:56.319Z,38.83
2019-04-03T07:11:24.141Z,37.80
2019-04-03T07:13:53.619Z,40.40
2019-04-03T07:16:20.681Z,35.20
2019-04-03T07:18:48.440Z,37.50
2019-04-03T07:21:15.928Z,31.60
2019-04-03T07:23:43.672Z,33.67
2019-04-03T07:26:10.949Z,44.93
2019-04-03T07:28:40.613Z,31.00
2019-04-03T07:31:07.422Z,38.80
2019-04-03T07:33:35.007Z,38.73
2019-04-03T07:36:02.576Z,39.60
2019-04-03T07:38:30.067Z,32.03
2019-04-03T07:40:57.442Z,36.17
2019-04-03T07:43:26.855Z,35.90
2019-04-03T07:45:53.781Z,28.03
2019-04-03T07:48:21.071Z,34.33
2019-04-03T07:50:48.537Z,28.30
2019-04-03T07:53:15.937Z,28.90
2019-04-03T07:55:44.234Z,39.10
2019-04-03T07:58:11.733Z,28.70
2019-04-03T08:00:39.250Z,30.93
2019-04-03T08:03:06.961Z,28.80
2019-04-03T08:05:34.453Z,43.17
2019-04-03T08:08:02.503Z,44.43
2019-04-03T08:10:30.602Z,35.70
2019-04-03T08:12:59.382Z,42.43
2019-04-03T08:15:27.118Z,32.80
2019-04-03T08:17:56.958Z,35.57
2019-04-03T08:20:25.709Z,36.57
2019-04-03T08:22:52.756Z,34.47
2019-04-03T08:25:20.088Z,38.30
2019-04-03T08:27:47.392Z,41.57
2019-04-03T08:30:15.033Z,41.67
2019-04-03T08:32:42.318Z,32.90
2019-04-03T08:35:20.354Z,32.60
2019-04-03T08:37:41.652Z,31.50
2019-04-03T08:40:08.579Z,32.93
2019-04-03T08:42:36.018Z,38.93
2019-04-03T08:45:05.740Z,30.13
2019-04-03T08:47:32.472Z,28.27
2019-04-03T08:50:01.556Z,26.87
2019-04-03T08:52:28.768Z,26.27
2019-04-03T08:54:56.088Z,29.83
2019-04-03T08:57:23.364Z,35.03
2019-04-03T08:59:50.666Z,38.17
2019-04-03T09:02:18.215Z,28.63
2019-04-03T09:04:47.512Z,23.33
2019-04-03T09:07:14.641Z,28.93
2019-04-03T09:09:41.929Z,27.50
2019-04-03T09:12:09.311Z,23.73
2019-04-03T09:14:37.003Z,26.13
2019-04-03T09:17:04.518Z,29.53
2019-04-03T09:19:31.801Z,22.90
2019-04-03T09:21:59.125Z,21.13
2019-04-03T09:24:29.071Z,21.40
2019-04-03T09:26:55.400Z,20.70
2019-04-03T09:29:22.994Z,21.30
2019-04-03T09:31:51.402Z,20.17
2019-04-03T09:34:20.442Z,19.50
2019-04-03T09:36:48.092Z,19.87
2019-04-03T09:39:15.594Z,19.40
2019-04-03T09:41:43.373Z,19.27
2019-04-03T09:44:10.714Z,19.70
2019-04-03T09:46:38.009Z,20.40
2019-04-03T09:49:05.719Z,20.33
2019-04-03T09:51:34.433Z,21.23
2019-04-03T09:54:01.700Z,20.10
2019-04-03T09:56:29.065Z,21.47
2019-04-03T09:58:56.740Z,20.60
2019-04-03T10:01:24.184Z,22.00
2019-04-03T10:03:53.782Z,23.00
2019-04-03T10:06:20.571Z,26.53
2019-04-03T10:08:48.316Z,23.03
2019-04-03T10:11:15.880Z,22.20
2019-04-03T10:13:44.083Z,19.90
2019-04-03T10:16:11.386Z,21.20
2019-04-03T10:18:40.863Z,20.47
2019-04-03T10:21:07.833Z,23.17
2019-04-03T10:23:35.442Z,21.07
2019-04-03T10:26:02.777Z,20.10
2019-04-03T10:28:30.246Z,18.77
2019-04-03T10:30:57.529Z,16.07
2019-04-03T10:33:24.886Z,15.93
2019-04-03T10:35:52.184Z,13.83
2019-04-03T10:38:19.513Z,11.57
2019-04-03T10:40:47.004Z,11.07
2019-04-03T10:43:14.361Z,9.10
2019-04-03T10:45:41.693Z,9.67
2019-04-03T10:48:09.058Z,10.77
2019-04-03T10:50:37.949Z,10.70
2019-04-03T10:53:05.561Z,12.83
2019-04-03T10:55:32.902Z,10.77
2019-04-03T10:58:01.917Z,10.80
2019-04-03T11:00:29.617Z,11.50
2019-04-03T11:02:57.354Z,11.87
2019-04-03T11:05:25.110Z,12.30
2019-04-03T11:07:52.444Z,10.90
2019-04-03T11:10:19.948Z,11.70
2019-04-03T11:12:47.634Z,11.97
2019-04-03T11:15:16.990Z,11.17
2019-04-03T11:17:44.374Z,11.33
2019-04-03T11:20:13.289Z,12.13
2019-04-03T11:22:42.619Z,10.60
2019-04-03T11:25:13.174Z,11.37
2019-04-03T11:30:14.024Z,10.33
2019-04-03T11:30:54.712Z,10.97
2019-04-03T11:32:41.679Z,12.57
2019-04-03T11:35:09.470Z,12.23
2019-04-03T11:37:37.198Z,11.10
2019-04-03T11:40:06.325Z,9.80
2019-04-03T11:42:33.873Z,11.03
2019-04-03T11:45:04.338Z,11.40
2019-04-03T11:47:30.201Z,12.37
2019-04-03T11:49:57.780Z,11.77
2019-04-03T11:52:25.394Z,10.40
2019-04-03T11:54:53.422Z,11.37
2019-04-03T11:57:20.868Z,10.97
2019-04-03T11:59:48.152Z,9.97
2019-04-03T12:02:15.431Z,10.73
2019-04-03T12:04:44.467Z,10.40
2019-04-03T12:07:12.053Z,10.90
2019-04-03T12:09:39.554Z,10.00
2019-04-03T12:12:08.929Z,10.70
2019-04-03T12:14:36.378Z,12.33
2019-04-03T12:17:03.878Z,11.47
2019-04-03T12:19:31.638Z,11.80
2019-04-03T12:21:59.030Z,9.90
2019-04-03T12:24:26.330Z,11.03
2019-04-03T12:26:55.454Z,10.23
2019-04-03T12:29:23.164Z,11.77
2019-04-03T12:31:50.633Z,10.70
2019-04-03T12:34:17.949Z,9.30
2019-04-03T12:36:46.101Z,9.63
2019-04-03T12:39:15.577Z,10.33
2019-04-03T12:41:43.577Z,10.17
2019-04-03T12:44:11.261Z,10.33
2019-04-03T12:46:40.848Z,9.40
2019-04-03T12:49:08.002Z,10.47
2019-04-03T12:51:35.841Z,9.10
2019-04-03T12:54:04.073Z,8.50
2019-04-03T12:56:31.558Z,9.60
2019-04-03T12:58:58.826Z,8.47
2019-04-03T13:01:26.093Z,9.13
2019-04-03T13:03:55.955Z,9.77
2019-04-03T13:06:22.449Z,9.80
2019-04-03T13:08:49.785Z,11.03
2019-04-03T13:11:19.051Z,8.13
2019-04-03T13:13:46.083Z,8.30
2019-04-03T13:16:13.613Z,8.40
2019-04-03T13:18:40.999Z,8.90
2019-04-03T13:21:09.378Z,7.97
2019-04-03T13:23:36.988Z,8.50
2019-04-03T13:26:04.382Z,8.73
2019-04-03T13:28:31.708Z,7.80
2019-04-03T13:31:00.643Z,8.03
2019-04-03T13:33:28.045Z,7.60
2019-04-03T13:35:55.313Z,6.60
2019-04-03T13:38:22.875Z,6.67
2019-04-03T13:40:50.476Z,6.33
2019-04-03T13:43:21.003Z,6.50
2019-04-03T13:45:47.388Z,7.00
2019-04-03T13:48:14.692Z,6.27
2019-04-03T13:50:41.968Z,5.67
2019-04-03T13:53:09.379Z,6.40
2019-04-03T13:55:39.696Z,5.43
2019-04-03T13:58:05.903Z,5.97
2019-04-03T14:00:33.963Z,5.70
2019-04-03T14:03:01.519Z,5.23
2019-04-03T14:05:32.254Z,8.73
2019-04-03T14:07:58.245Z,5.27
2019-04-03T14:10:26.922Z,6.27
2019-04-03T14:12:54.737Z,15.33
2019-04-03T14:15:22.044Z,5.97
2019-04-03T14:17:56.507Z,5.73
2019-04-03T14:20:18.856Z,6.37
2019-04-03T14:22:46.584Z,5.90
2019-04-03T14:25:21.344Z,6.77
2019-04-03T14:27:43.133Z,5.50
2019-04-03T14:30:12.027Z,7.03
2019-04-03T14:32:40.127Z,6.27
2019-04-03T14:35:35.039Z,7.87
2019-04-03T14:37:36.482Z,7.70
2019-04-03T14:40:05.714Z,11.27
2019-04-03T14:42:33.201Z,12.70
2019-04-03T14:45:00.488Z,15.27
2019-04-03T14:47:28.423Z,7.23
2019-04-03T14:49:56.112Z,11.57
2019-04-03T14:52:23.996Z,10.90
2019-04-03T14:54:51.650Z,6.80
2019-04-03T14:57:22.263Z,4.90
2019-04-03T14:59:48.053Z,5.30
2019-04-03T15:02:15.932Z,8.37
2019-04-03T15:04:43.323Z,5.30
2019-04-03T15:07:10.894Z,4.23
2019-04-03T15:09:38.700Z,7.20
2019-04-03T15:12:07.034Z,5.33
2019-04-03T15:14:34.793Z,4.70
2019-04-03T15:17:04.400Z,5.50
2019-04-03T15:19:31.244Z,6.70
2019-04-03T15:22:01.713Z,6.97
2019-04-03T15:24:28.036Z,12.00
2019-04-03T15:26:55.454Z,6.87
2019-04-03T15:29:23.015Z,6.50
2019-04-03T15:31:50.361Z,6.40
2019-04-03T15:34:17.705Z,5.23
2019-04-03T15:36:45.092Z,5.63
2019-04-03T15:39:16.483Z,6.10
2019-04-03T15:41:42.628Z,7.80
2019-04-03T15:44:09.985Z,7.30
2019-04-03T15:46:37.428Z,5.70
2019-04-03T15:49:05.275Z,5.53
2019-04-03T15:51:32.581Z,6.80
2019-04-03T15:54:00.397Z,7.70
2019-04-03T15:56:28.316Z,5.77
2019-04-03T15:58:57.870Z,5.60
2019-04-03T16:01:25.468Z,6.30
2019-04-03T16:03:53.363Z,6.53
2019-04-03T16:06:21.161Z,6.93
2019-04-03T16:08:48.683Z,5.70
2019-04-03T16:11:15.990Z,6.40
2019-04-03T16:13:46.094Z,5.53
2019-04-03T16:16:12.617Z,6.17
2019-04-03T16:18:39.997Z,6.90
2019-04-03T16:21:07.492Z,6.47
2019-04-03T16:23:36.871Z,13.83
2019-04-03T16:26:03.925Z,6.97
2019-04-03T16:28:33.359Z,12.70
2019-04-03T16:31:00.238Z,8.23
2019-04-03T16:33:27.834Z,7.50
2019-04-03T16:35:55.228Z,8.73
2019-04-03T16:38:22.861Z,7.90
2019-04-03T16:40:50.329Z,8.20
2019-04-03T16:43:21.174Z,7.23
2019-04-03T16:45:47.758Z,7.97
2019-04-03T16:48:16.861Z,7.90
2019-04-03T16:50:44.117Z,8.17
2019-04-03T16:53:11.568Z,9.83
2019-04-03T16:55:38.908Z,8.87
2019-04-03T16:58:06.714Z,7.83
2019-04-03T17:00:34.197Z,10.13
2019-04-03T17:03:01.462Z,8.70
2019-04-03T17:05:28.900Z,8.17
2019-04-03T17:07:56.262Z,8.50
2019-04-03T17:10:23.598Z,8.60
2019-04-03T17:12:50.878Z,11.50
2019-04-03T17:15:18.346Z,9.17
2019-04-03T17:17:46.825Z,8.57
2019-04-03T17:20:14.978Z,9.00
2019-04-03T17:22:45.025Z,9.03
2019-04-03T17:25:11.727Z,8.63
2019-04-03T17:27:39.305Z,7.57
2019-04-03T17:30:07.656Z,9.97
2019-04-03T17:32:35.413Z,9.37
2019-04-03T17:35:02.890Z,9.20
2019-04-03T17:37:30.998Z,9.03
2019-04-03T17:39:58.343Z,9.43
2019-04-03T17:42:25.954Z,9.00
2019-04-03T17:44:53.343Z,8.90
2019-04-03T17:47:20.624Z,9.57
2019-04-03T17:49:49.317Z,10.20
2019-04-03T17:52:16.662Z,11.10
2019-04-03T17:54:44.033Z,10.80
2019-04-03T17:57:11.915Z,10.60
2019-04-03T17:59:40.450Z,11.00
2019-04-03T18:02:07.751Z,11.60
2019-04-03T18:04:35.144Z,11.53
2019-04-03T18:07:02.561Z,12.40
2019-04-03T18:09:29.916Z,10.93
2019-04-03T18:11:58.095Z,11.77
2019-04-03T18:14:26.576Z,14.10
2019-04-03T18:16:54.414Z,11.97
2019-04-03T18:19:21.792Z,11.83
2019-04-03T18:21:49.491Z,12.07
2019-04-03T18:24:16.982Z,12.50
2019-04-03T18:26:45.070Z,12.53
2019-04-03T18:29:12.491Z,12.10
2019-04-03T18:31:39.856Z,12.47
2019-04-03T18:34:07.226Z,12.07
2019-04-03T18:36:35.559Z,12.20
2019-04-03T18:39:04.629Z,11.10
2019-04-03T18:41:32.036Z,12.10
2019-04-03T18:43:59.413Z,12.23
2019-04-03T18:46:32.535Z,12.07
2019-04-03T18:49:00.894Z,10.80
2019-04-03T18:51:24.841Z,14.83
2019-04-03T18:53:52.202Z,10.50
2019-04-03T18:56:21.022Z,13.50
2019-04-03T18:58:49.542Z,10.17
2019-04-03T19:01:17.236Z,12.23
2019-04-03T19:03:44.685Z,12.63
2019-04-03T19:06:13.725Z,11.97
2019-04-03T19:08:41.367Z,13.33
2019-04-03T19:11:09.680Z,13.80
2019-04-03T19:13:37.845Z,11.80
2019-04-03T19:16:08.035Z,12.00
2019-04-03T19:18:34.356Z,12.17
2019-04-03T19:21:02.959Z,11.87
2019-04-03T19:23:30.260Z,14.10
2019-04-03T19:25:58.118Z,12.87
2019-04-03T19:28:26.982Z,14.00
2019-04-03T19:30:54.356Z,11.33
2019-04-03T19:33:21.866Z,12.97
2019-04-03T19:35:49.454Z,11.70
2019-04-03T19:38:16.842Z,10.50
2019-04-03T19:40:44.226Z,11.57
2019-04-03T19:43:14.659Z,10.77
2019-04-03T19:45:41.380Z,11.53
2019-04-03T19:48:10.216Z,12.00
2019-04-03T19:50:37.721Z,11.80
2019-04-03T19:53:07.873Z,12.53
2019-04-03T19:55:36.085Z,10.80
2019-04-03T19:58:03.702Z,11.43
2019-04-03T20:00:31.133Z,11.07
2019-04-03T20:02:58.413Z,12.60
2019-04-03T20:05:28.100Z,11.63
2019-04-03T20:07:58.687Z,12.47
2019-04-03T20:10:24.612Z,12.17
2019-04-03T20:12:52.152Z,11.30
2019-04-03T20:15:22.542Z,11.03
2019-04-03T20:17:49.743Z,11.83
2019-04-03T20:20:17.638Z,11.03
2019-04-03T20:22:45.106Z,11.37
2019-04-03T20:25:14.699Z,12.87
2019-04-03T20:27:41.694Z,12.60
2019-04-03T20:30:10.640Z,11.53
2019-04-03T20:32:40.745Z,13.90
2019-04-03T20:35:10.609Z,13.97
2019-04-03T20:37:38.073Z,12.93
2019-04-03T20:40:05.816Z,14.90
2019-04-03T20:42:33.300Z,13.10
2019-04-03T20:45:00.676Z,13.40
2019-04-03T20:47:27.978Z,13.37
2019-04-03T20:49:55.356Z,13.70
2019-04-03T20:52:22.734Z,12.17
2019-04-03T20:54:52.787Z,12.57
2019-04-03T20:57:19.148Z,13.53
2019-04-03T20:59:58.593Z,13.17
2019-04-03T21:02:15.520Z,15.67
2019-04-03T21:04:42.974Z,14.00
2019-04-03T21:07:10.369Z,11.47
2019-04-03T21:09:37.672Z,11.87
2019-04-03T21:12:05.627Z,11.80
2019-04-03T21:14:33.037Z,11.47
2019-04-03T21:17:00.523Z,11.83
2019-04-03T21:19:27.921Z,12.17
2019-04-03T21:21:55.306Z,12.00
2019-04-03T21:24:22.629Z,12.40
2019-04-03T21:26:50.170Z,12.37
2019-04-03T21:29:17.528Z,10.97
2019-04-03T21:31:44.860Z,10.70
2019-04-03T21:34:12.254Z,12.73
2019-04-03T21:36:39.592Z,11.17
2019-04-03T21:39:07.419Z,11.50
2019-04-03T21:41:34.897Z,11.23
2019-04-03T21:44:02.452Z,11.80
2019-04-03T21:46:30.150Z,11.80
2019-04-03T21:48:58.795Z,12.00
2019-04-03T21:51:26.150Z,11.43
2019-04-03T21:53:55.829Z,11.27
2019-04-03T21:56:22.500Z,12.27
2019-04-03T21:58:49.868Z,12.17
2019-04-03T22:01:18.702Z,12.33
2019-04-03T22:03:46.258Z,12.40
2019-04-03T22:06:13.619Z,11.97
2019-04-03T22:08:40.972Z,11.73
2019-04-03T22:11:08.442Z,13.40
2019-04-03T22:13:38.235Z,13.30
2019-04-03T22:16:04.962Z,11.83
2019-04-03T22:18:32.432Z,12.13
2019-04-03T22:20:59.932Z,12.43
2019-04-03T22:23:28.741Z,13.23
2019-04-03T22:25:56.068Z,13.53
2019-04-03T22:28:23.459Z,13.90
2019-04-03T22:30:52.215Z,12.97
2019-04-03T22:33:19.939Z,12.20
2019-04-03T22:35:47.398Z,14.37
2019-04-03T22:38:15.046Z,13.03
2019-04-03T22:40:42.340Z,13.77
2019-04-03T22:43:09.711Z,13.83
2019-04-03T22:45:37.088Z,13.30
2019-04-03T22:48:04.591Z,14.90
2019-04-03T22:50:35.147Z,13.47
2019-04-03T22:53:02.227Z,12.57
2019-04-03T22:55:29.602Z,14.17
2019-04-03T22:57:56.896Z,14.10
2019-04-03T23:00:25.871Z,12.70
2019-04-03T23:02:53.323Z,11.80
2019-04-03T23:05:20.669Z,13.43
2019-04-03T23:07:47.946Z,14.43
2019-04-03T23:10:15.261Z,13.87
2019-04-03T23:12:42.572Z,14.23
2019-04-03T23:15:10.004Z,13.63
2019-04-03T23:17:37.484Z,12.00
2019-04-03T23:20:05.314Z,14.03
2019-04-03T23:22:32.625Z,12.30
2019-04-03T23:25:00.138Z,12.90
2019-04-03T23:27:27.483Z,13.10
2019-04-03T23:29:54.825Z,12.60
2019-04-03T23:32:22.160Z,13.87
2019-04-03T23:34:50.073Z,14.00
2019-04-03T23:37:17.624Z,14.93
2019-04-03T23:39:45.286Z,13.37
2019-04-03T23:42:12.585Z,13.80
2019-04-03T23:44:41.733Z,13.57
2019-04-03T23:47:08.974Z,13.03
2019-04-03T23:49:36.334Z,12.70
2019-04-03T23:52:03.610Z,14.10
2019-04-03T23:54:33.627Z,14.03
2019-04-03T23:56:59.993Z,13.07
2019-04-03T23:59:27.283Z,14.53
